KVBG/VBG METAR and TAF weather

Enter ICAO airport designator
Station Type Date Time Source
KVBG METAR 2021/10/24 21:58 UTC NOAA

KVBG 242158Z AUTO 18008KT 10SM FEW006 BKN012 OVC021 17/13 A2990 RMK AO2 SLP128 T01690133 $


Station Type Date Time Source
KVBG Decoded METAR 2021/10/24 21:58 UTC NOAA

Lompoc, Vandenberg Air Force Base, CA, United States (KVBG) 34-43-46N 120-34-36W 121M
Oct 24, 2021 - 05:58 PM EDT / 2021.10.24 2158 UTC
Wind: from the S (180 degrees) at 9 MPH (8 KT):0
Visibility: 10 mile(s):0
Sky conditions: overcast
Temperature: 62.4 F (16.9 C)
Dew Point: 55.9 F (13.3 C)
Relative Humidity: 79%
Pressure (altimeter): 29.9 in. Hg (1012 hPa)
ob: KVBG 242158Z AUTO 18008KT 10SM FEW006 BKN012 OVC021 17/13 A2990 RMK AO2 SLP128 T01690133
cycle: 22

Station Type Date Time Source
KVBG TAF 2021/10/22 22:55 UTC NOAA

TAF
AMD KVBG 222248Z 2222/2404 26009KT 9999 SCT004 OVC006 QNH2997INS
BECMG 2222/2223 26009KT 8000 BR OVC004 QNH2998INS
BECMG 2301/2302 VRB06KT 3200 BR OVC002 QNH3000INS
BECMG 2303/2304 VRB06KT 0800 FG VV001 QNH3000INS
BECMG 2311/2312 VRB06KT 4800 BR OVC005 QNH3003INS
BECMG 2313/2314 27006KT 9999 NSW FEW006 BKN250 QNH3006INS
BECMG 2318/2319 30010G15KT 9999 BKN250 QNH3004INS
BECMG 2322/2323 32015G22KT 9999 BKN250 510006 QNH3002INS
BECMG 2400/2401 33012KT 9999 SCT004 BKN250 QNH3000INS
BECMG 2402/2403 34006KT 8000 BR OVC004 QNH3001INS TX18/2321Z TN11/2313Z LAST NO
AMDS AFT 2300 NEXT 2514

Example: see airport list